KSCX

Scott Municipal Airport

Oneida, Tennessee, USA
METAR KSCX 170335Z AUTO 32003KT 10SM OVC037 11/10 A3022 RMK A01
Observed Flight Rules
Oct-17 @ 03:35 UTC (23 minutes ago) Visual Flight Rules
Wind Visibility Clouds
320° at 3 knots 10 miles
  • Overcast at 3,700' AGL
Temperatures Readings
Current 11°C / 52°F
Dewpoint 10°C / 50°F
Humidity 94%
Altimeter 30.22" Hg
Pressure 1023 hPa
Elevation 471
METAR KSCX 170335Z AUTO 32003KT 10SM OVC037 11/10 A3022 RMK A01
Observed Flight Rules
Oct-17 @ 03:35 UTC
(23 minutes ago)
VFR
Wind Visibility
320° at 3 knots 10 miles
Clouds
  • Overcast at 3,700' AGL
Temperature Dewpoint
11°C / 52°F 10°C / 50°F
Humidity Altimeter Pressure
94% 30.22" Hg 1023 hPa